createdAt,value
2023-05-02T08:24:54.045Z,-0.61
2023-05-02T08:29:58.570Z,-0.78
2023-05-02T08:35:03.789Z,-1.13
2023-05-02T08:40:13.030Z,-1.64
2023-05-02T08:45:16.942Z,-1.60
2023-05-02T08:50:20.821Z,-1.40
2023-05-02T08:55:27.832Z,-1.12
2023-05-02T09:00:31.753Z,-1.06
2023-05-02T09:05:37.552Z,-0.63
2023-05-02T09:10:42.991Z,-0.54
2023-05-02T09:15:57.892Z,-0.46
2023-05-02T09:21:01.893Z,-0.84
2023-05-02T09:26:21.835Z,-1.23
2023-05-02T09:31:49.588Z,-1.02
2023-05-02T09:36:51.894Z,-0.91
2023-05-02T09:41:59.547Z,-0.42
2023-05-02T09:47:06.837Z,-0.54
2023-05-02T09:52:13.794Z,-0.85
2023-05-02T09:57:20.913Z,-0.33
2023-05-02T10:02:25.503Z,0.18
2023-05-02T10:07:29.190Z,-0.44
2023-05-02T10:12:52.342Z,-0.16
2023-05-02T10:17:57.125Z,-0.39
2023-05-02T10:23:01.491Z,-0.43
2023-05-02T10:28:06.654Z,-0.20
2023-05-02T10:33:14.544Z,-0.44
2023-05-02T10:38:21.090Z,-1.30
2023-05-02T10:43:32.080Z,-1.89
2023-05-02T10:48:35.602Z,-2.43
2023-05-02T10:53:40.133Z,-2.81
2023-05-02T10:58:44.993Z,-3.24
2023-05-02T11:03:55.288Z,-3.37
2023-05-02T11:09:16.426Z,-3.78
2023-05-02T11:14:34.571Z,-3.90
2023-05-02T11:20:01.720Z,-3.89
2023-05-02T11:25:07.265Z,-3.22
2023-05-02T11:30:14.853Z,-2.51
2023-05-02T11:35:18.762Z,-2.09
2023-05-02T11:40:23.969Z,-2.96
2023-05-02T11:45:34.034Z,-2.22
2023-05-02T11:50:48.701Z,-2.91
2023-05-02T11:55:54.743Z,-3.36
2023-05-02T12:01:12.433Z,-3.34
2023-05-02T12:06:16.424Z,-3.15
2023-05-02T12:11:21.513Z,-2.72
2023-05-02T12:16:24.881Z,-2.71
2023-05-02T12:21:29.796Z,-2.69
2023-05-02T12:26:34.558Z,-2.35
2023-05-02T12:31:37.901Z,-2.18
2023-05-02T12:36:45.183Z,-2.13
2023-05-02T12:41:49.918Z,-2.99
2023-05-02T12:47:00.423Z,-2.71
2023-05-02T12:52:03.808Z,-2.49
2023-05-02T12:57:09.072Z,-3.44
2023-05-02T13:02:12.459Z,-3.07
2023-05-02T13:07:15.807Z,-2.41
2023-05-02T13:12:20.531Z,-2.61
2023-05-02T13:17:23.916Z,-3.34
2023-05-02T13:22:27.325Z,-3.66
2023-05-02T13:27:34.066Z,-3.62
2023-05-02T13:32:37.531Z,-2.95
2023-05-02T13:37:41.402Z,-3.99
2023-05-02T13:42:46.224Z,-3.71
2023-05-02T13:47:49.585Z,-3.96
2023-05-02T13:52:52.900Z,-4.38
2023-05-02T13:57:57.529Z,-4.35
2023-05-02T14:03:00.998Z,-4.39
2023-05-02T14:08:04.466Z,-4.23
2023-05-02T14:13:09.201Z,-4.68
2023-05-02T14:18:12.640Z,-4.25
2023-05-02T14:23:16.411Z,-4.92
2023-05-02T14:28:21.197Z,-4.89
2023-05-02T14:33:24.520Z,-4.51
2023-05-02T14:38:27.784Z,-4.87
2023-05-02T14:43:32.431Z,-4.51
2023-05-02T14:48:35.716Z,-4.34
2023-05-02T14:53:39.313Z,-4.43
2023-05-02T14:58:43.950Z,-4.66
2023-05-02T15:04:04.306Z,-4.91
2023-05-02T15:09:08.973Z,-4.51
2023-05-02T15:14:13.767Z,-4.50
2023-05-02T15:19:17.098Z,-4.38
2023-05-02T15:24:20.408Z,-3.92
2023-05-02T15:29:25.000Z,-3.63
2023-05-02T15:34:28.689Z,-3.65
2023-05-02T15:39:31.987Z,-3.57
2023-05-02T15:44:39.211Z,-3.71
2023-05-02T15:49:42.538Z,-3.58
2023-05-02T15:54:45.904Z,-3.64
2023-05-02T15:59:50.756Z,-4.57
2023-05-02T16:04:54.102Z,-4.53
2023-05-02T16:09:57.414Z,-4.57
2023-05-02T16:15:03.959Z,-4.95
2023-05-02T16:20:08.715Z,-5.43
2023-05-02T16:25:13.250Z,-5.34
2023-05-02T16:30:18.224Z,-5.08
2023-05-02T16:35:21.886Z,-5.29
2023-05-02T16:40:27.378Z,-5.45
2023-05-02T16:45:33.354Z,-5.61
2023-05-02T16:50:36.696Z,-5.69
2023-05-02T16:55:40.410Z,-5.81
2023-05-02T17:00:47.743Z,-5.80
2023-05-02T17:05:53.007Z,-5.91
2023-05-02T17:10:56.833Z,-5.85
2023-05-02T17:16:02.563Z,-5.72
2023-05-02T17:21:06.120Z,-5.67
2023-05-02T17:26:14.370Z,-5.55
2023-05-02T17:31:19.565Z,-5.48
2023-05-02T17:36:22.890Z,-5.31
2023-05-02T17:41:26.652Z,-5.20
2023-05-02T17:46:31.772Z,-5.31
2023-05-02T17:51:37.705Z,-5.28
2023-05-02T17:56:41.089Z,-5.32
2023-05-02T18:01:46.105Z,-5.39
2023-05-02T18:06:50.773Z,-5.36
2023-05-02T18:11:55.359Z,-5.33
2023-05-02T18:17:09.161Z,-5.43
2023-05-02T18:22:14.029Z,-5.43
2023-05-02T18:27:17.887Z,-5.50
2023-05-02T18:32:22.721Z,-5.91
2023-05-02T18:37:31.138Z,-5.84
2023-05-02T18:42:35.051Z,-5.74
2023-05-02T18:47:40.099Z,-5.75
2023-05-02T18:52:43.518Z,-5.68
2023-05-02T18:57:46.796Z,-5.67
2023-05-02T19:02:58.111Z,-5.81
2023-05-02T19:08:06.394Z,-5.80
2023-05-02T19:13:13.268Z,-5.85
2023-05-02T19:18:18.355Z,-5.81
2023-05-02T19:23:24.165Z,-5.72
2023-05-02T19:28:27.506Z,-5.84
2023-05-02T19:33:32.183Z,-5.77
2023-05-02T19:38:35.594Z,-5.82
2023-05-02T19:43:41.267Z,-5.82
2023-05-02T19:48:48.716Z,-5.89
2023-05-02T19:53:54.840Z,-6.01
2023-05-02T19:59:01.207Z,-6.10
2023-05-02T20:04:05.881Z,-6.07
2023-05-02T20:09:09.235Z,-5.96
2023-05-02T20:14:12.556Z,-6.08
2023-05-02T20:19:21.880Z,-6.06
2023-05-02T20:24:25.571Z,-6.19
2023-05-02T20:29:28.937Z,-6.30
2023-05-02T20:34:39.131Z,-6.31
2023-05-02T20:39:45.440Z,-6.35
2023-05-02T20:44:55.795Z,-6.45
2023-05-02T20:50:03.600Z,-6.52
2023-05-02T20:55:07.861Z,-6.54
2023-05-02T21:00:13.560Z,-6.68
2023-05-02T21:05:18.504Z,-6.93
2023-05-02T21:10:22.421Z,-6.81
2023-05-02T21:15:25.952Z,-6.80
2023-05-02T21:20:30.884Z,-6.82
2023-05-02T21:25:36.383Z,-6.82
2023-05-02T21:30:39.845Z,-6.80
